Delray Beach, FL (33448)

2:33 PM EDT on July 30, 2016 (GMT -0400)
SFWMD | | Change Station

Elev 10 ft 26.50 °N, 80.22 °W | Updated 1 hour ago

Scattered Clouds
Scattered Clouds
93 °F
Feels Like 103 °F
N
3
Wind Variable Wind from ESE
Gusts 0.0 mph

Today
High -- | Low -- °F
--% Chance of Precip.
Yesterday
High -- | Low -- °F
Precip. -- in
Pressure 30.06 in
Visibility 10.0 miles
Clouds Scattered Clouds 3000 ft
Heat Index 103 °F
Dew Point 74 °F
Humidity 53%
Rainfall in
Snow Depth Not available.
6:45 AM 8:08 PM
Waning Crescent, 12% visible
METAR KPMP 301753Z 11012KT 10SM SCT030 33/22 A3005 RMK AO2 SLP177 T03280222 10333 20278 58006
Pressure 30.06 in
Visibility 10.0 miles
Clouds Scattered Clouds 3000 ft
Heat Index 103 °F
Dew Point 74 °F
Humidity 53%
Rainfall in
Snow Depth Not available.
6:45 AM 8:08 PM
Waning Crescent, 12% visible
METAR KPMP 301753Z 11012KT 10SM SCT030 33/22 A3005 RMK AO2 SLP177 T03280222 10333 20278 58006

10-Day Weather Forecast

Almanac

Astronomy

Jul. 30, 2016 Rise Set
Actual Time
Civil Twilight
Nautical Twilight
Astronomical Twilight
Moon
Length of Visible Light
Length of Day
Tomorrow will be .
, % of the Moon is Illuminated

Today's Extremes

State Highs State Lows

Community

WunderPhotos

Upload Photos

1,928,609 photos uploaded!

WunderBlog® & News

Nearby

Air Quality

  Air Quality AQ Index Pollutant
Not available.

Snow Depth

Station Depth Elevation

Earthquake Activity

City Distance Mag. Time & Date
Minimum magnitude displayed is 2.5.

Coastal Water Temperatures

Place Temperature

Stations

Nearby Weather Stations

Station Location Temp. Windchill Dew Point Humidity Wind Precip. Elev Updated Type
                   

Watches & Warnings

There are currently no watches in effect.